sensor_id;sensor_type;location;lat;lon;timestamp;temperature;humidity
5560;DHT22;2803;47.916;8.074;2022-11-15T00:02:20;9.30;99.90
5560;DHT22;2803;47.916;8.074;2022-11-15T00:04:46;9.10;99.90
5560;DHT22;2803;47.916;8.074;2022-11-15T00:07:13;9.30;99.90
5560;DHT22;2803;47.916;8.074;2022-11-15T00:09:41;9.30;99.90
5560;DHT22;2803;47.916;8.074;2022-11-15T00:12:07;9.00;99.90
5560;DHT22;2803;47.916;8.074;2022-11-15T00:14:34;9.10;99.90
5560;DHT22;2803;47.916;8.074;2022-11-15T00:17:01;9.70;99.90
5560;DHT22;2803;47.916;8.074;2022-11-15T00:19:27;10.10;99.90
5560;DHT22;2803;47.916;8.074;2022-11-15T00:21:54;10.40;99.90
5560;DHT22;2803;47.916;8.074;2022-11-15T00:24:20;10.20;99.90
5560;DHT22;2803;47.916;8.074;2022-11-15T00:26:48;10.00;99.90
5560;DHT22;2803;47.916;8.074;2022-11-15T00:29:15;10.60;99.90
5560;DHT22;2803;47.916;8.074;2022-11-15T00:31:43;10.50;99.90
5560;DHT22;2803;47.916;8.074;2022-11-15T00:34:09;10.80;99.90
5560;DHT22;2803;47.916;8.074;2022-11-15T00:36:36;11.00;99.90
5560;DHT22;2803;47.916;8.074;2022-11-15T00:39:04;10.80;99.90
5560;DHT22;2803;47.916;8.074;2022-11-15T00:41:31;11.00;99.90
5560;DHT22;2803;47.916;8.074;2022-11-15T00:43:59;10.80;99.90
5560;DHT22;2803;47.916;8.074;2022-11-15T00:46:25;10.10;99.90
5560;DHT22;2803;47.916;8.074;2022-11-15T00:48:52;10.70;99.90
5560;DHT22;2803;47.916;8.074;2022-11-15T00:51:19;9.90;99.90
5560;DHT22;2803;47.916;8.074;2022-11-15T00:53:45;10.00;99.90
5560;DHT22;2803;47.916;8.074;2022-11-15T00:56:12;9.90;99.90
5560;DHT22;2803;47.916;8.074;2022-11-15T00:58:38;9.80;99.90
5560;DHT22;2803;47.916;8.074;2022-11-15T01:01:08;9.90;99.90
5560;DHT22;2803;47.916;8.074;2022-11-15T01:03:36;10.40;99.90
5560;DHT22;2803;47.916;8.074;2022-11-15T01:06:03;9.90;99.90
5560;DHT22;2803;47.916;8.074;2022-11-15T01:08:30;10.40;99.90
5560;DHT22;2803;47.916;8.074;2022-11-15T01:11:00;10.30;99.90
5560;DHT22;2803;47.916;8.074;2022-11-15T01:13:30;10.10;99.90
5560;DHT22;2803;47.916;8.074;2022-11-15T01:15:56;9.50;99.90
5560;DHT22;2803;47.916;8.074;2022-11-15T01:18:24;10.00;99.90
5560;DHT22;2803;47.916;8.074;2022-11-15T01:20:51;9.50;99.90
5560;DHT22;2803;47.916;8.074;2022-11-15T01:23:18;9.80;99.90
5560;DHT22;2803;47.916;8.074;2022-11-15T01:25:44;10.20;99.90
5560;DHT22;2803;47.916;8.074;2022-11-15T01:28:11;10.50;99.90
5560;DHT22;2803;47.916;8.074;2022-11-15T01:30:38;10.20;99.90
5560;DHT22;2803;47.916;8.074;2022-11-15T01:33:04;9.90;99.90
5560;DHT22;2803;47.916;8.074;2022-11-15T01:35:32;10.00;99.90
5560;DHT22;2803;47.916;8.074;2022-11-15T01:37:59;9.90;99.90
5560;DHT22;2803;47.916;8.074;2022-11-15T01:40:25;9.80;99.90
5560;DHT22;2803;47.916;8.074;2022-11-15T01:42:52;9.80;99.90
5560;DHT22;2803;47.916;8.074;2022-11-15T01:45:19;9.90;99.90
5560;DHT22;2803;47.916;8.074;2022-11-15T01:47:49;9.90;99.90
5560;DHT22;2803;47.916;8.074;2022-11-15T01:50:20;10.40;99.90
5560;DHT22;2803;47.916;8.074;2022-11-15T01:52:50;10.20;99.90
5560;DHT22;2803;47.916;8.074;2022-11-15T01:55:19;10.60;99.90
5560;DHT22;2803;47.916;8.074;2022-11-15T01:57:47;10.80;99.90
5560;DHT22;2803;47.916;8.074;2022-11-15T02:00:16;10.50;99.90
5560;DHT22;2803;47.916;8.074;2022-11-15T02:02:43;10.40;99.90
5560;DHT22;2803;47.916;8.074;2022-11-15T02:05:10;10.30;99.90
5560;DHT22;2803;47.916;8.074;2022-11-15T02:07:37;10.60;99.90
5560;DHT22;2803;47.916;8.074;2022-11-15T02:10:09;10.60;99.90
5560;DHT22;2803;47.916;8.074;2022-11-15T02:12:36;10.60;99.90
5560;DHT22;2803;47.916;8.074;2022-11-15T02:15:04;10.70;99.90
5560;DHT22;2803;47.916;8.074;2022-11-15T02:17:45;10.60;99.90
5560;DHT22;2803;47.916;8.074;2022-11-15T02:20:32;10.50;99.90
5560;DHT22;2803;47.916;8.074;2022-11-15T02:23:21;10.70;99.90
5560;DHT22;2803;47.916;8.074;2022-11-15T02:26:16;10.60;99.90
5560;DHT22;2803;47.916;8.074;2022-11-15T02:28:56;10.80;99.90
5560;DHT22;2803;47.916;8.074;2022-11-15T02:31:29;10.80;99.90
5560;DHT22;2803;47.916;8.074;2022-11-15T02:34:02;10.70;99.90
5560;DHT22;2803;47.916;8.074;2022-11-15T02:36:41;10.40;99.90
5560;DHT22;2803;47.916;8.074;2022-11-15T02:39:15;10.40;99.90
5560;DHT22;2803;47.916;8.074;2022-11-15T02:41:47;10.80;99.90
5560;DHT22;2803;47.916;8.074;2022-11-15T02:44:20;11.10;99.90
5560;DHT22;2803;47.916;8.074;2022-11-15T02:46:51;10.80;99.90
5560;DHT22;2803;47.916;8.074;2022-11-15T02:49:34;10.90;99.90
5560;DHT22;2803;47.916;8.074;2022-11-15T02:52:01;11.20;99.90
5560;DHT22;2803;47.916;8.074;2022-11-15T02:54:30;11.00;99.90
5560;DHT22;2803;47.916;8.074;2022-11-15T02:57:01;10.90;99.90
5560;DHT22;2803;47.916;8.074;2022-11-15T02:59:42;10.90;99.90
5560;DHT22;2803;47.916;8.074;2022-11-15T03:02:21;11.20;99.90
5560;DHT22;2803;47.916;8.074;2022-11-15T03:04:54;11.10;99.90
5560;DHT22;2803;47.916;8.074;2022-11-15T03:07:27;11.00;99.90
5560;DHT22;2803;47.916;8.074;2022-11-15T03:10:02;11.20;99.90
5560;DHT22;2803;47.916;8.074;2022-11-15T03:12:36;11.40;99.90
5560;DHT22;2803;47.916;8.074;2022-11-15T03:15:08;11.40;99.90
5560;DHT22;2803;47.916;8.074;2022-11-15T03:17:40;11.40;99.90
5560;DHT22;2803;47.916;8.074;2022-11-15T03:20:08;11.50;99.90
5560;DHT22;2803;47.916;8.074;2022-11-15T03:22:38;11.30;99.90
5560;DHT22;2803;47.916;8.074;2022-11-15T03:25:09;10.70;99.90
5560;DHT22;2803;47.916;8.074;2022-11-15T03:27:39;10.70;99.90
5560;DHT22;2803;47.916;8.074;2022-11-15T03:30:08;11.00;99.90
5560;DHT22;2803;47.916;8.074;2022-11-15T03:32:39;11.30;99.90
5560;DHT22;2803;47.916;8.074;2022-11-15T03:35:09;11.40;99.90
5560;DHT22;2803;47.916;8.074;2022-11-15T03:37:41;11.00;99.90
5560;DHT22;2803;47.916;8.074;2022-11-15T03:40:10;11.40;99.90
5560;DHT22;2803;47.916;8.074;2022-11-15T03:42:42;11.50;99.90
5560;DHT22;2803;47.916;8.074;2022-11-15T03:45:15;11.40;99.90
5560;DHT22;2803;47.916;8.074;2022-11-15T03:47:48;11.10;99.90
5560;DHT22;2803;47.916;8.074;2022-11-15T03:50:18;11.40;99.90
5560;DHT22;2803;47.916;8.074;2022-11-15T03:52:46;11.30;99.90
5560;DHT22;2803;47.916;8.074;2022-11-15T03:55:15;10.80;99.90
5560;DHT22;2803;47.916;8.074;2022-11-15T03:57:42;10.60;99.90
5560;DHT22;2803;47.916;8.074;2022-11-15T04:00:10;10.50;99.90
5560;DHT22;2803;47.916;8.074;2022-11-15T04:02:37;10.50;99.90
5560;DHT22;2803;47.916;8.074;2022-11-15T04:05:05;10.70;99.90
5560;DHT22;2803;47.916;8.074;2022-11-15T04:07:32;11.00;99.90
5560;DHT22;2803;47.916;8.074;2022-11-15T04:09:58;11.30;99.90
5560;DHT22;2803;47.916;8.074;2022-11-15T04:12:28;11.40;99.90
5560;DHT22;2803;47.916;8.074;2022-11-15T04:14:59;11.30;99.90
5560;DHT22;2803;47.916;8.074;2022-11-15T04:17:41;11.50;99.90
5560;DHT22;2803;47.916;8.074;2022-11-15T04:20:12;11.40;99.90
5560;DHT22;2803;47.916;8.074;2022-11-15T04:22:54;11.40;99.90
5560;DHT22;2803;47.916;8.074;2022-11-15T04:25:34;11.20;99.90
5560;DHT22;2803;47.916;8.074;2022-11-15T04:28:01;11.30;99.90
5560;DHT22;2803;47.916;8.074;2022-11-15T04:30:27;11.40;99.90
5560;DHT22;2803;47.916;8.074;2022-11-15T04:32:54;11.60;99.90
5560;DHT22;2803;47.916;8.074;2022-11-15T04:35:22;11.60;99.90
5560;DHT22;2803;47.916;8.074;2022-11-15T04:37:51;11.60;99.90
5560;DHT22;2803;47.916;8.074;2022-11-15T04:40:18;11.60;99.90
5560;DHT22;2803;47.916;8.074;2022-11-15T04:42:45;11.30;99.90
5560;DHT22;2803;47.916;8.074;2022-11-15T04:45:11;11.00;99.90
5560;DHT22;2803;47.916;8.074;2022-11-15T04:47:38;10.90;99.90
5560;DHT22;2803;47.916;8.074;2022-11-15T04:50:05;10.90;99.90
5560;DHT22;2803;47.916;8.074;2022-11-15T04:52:33;11.20;99.90
5560;DHT22;2803;47.916;8.074;2022-11-15T04:55:01;11.20;99.90
5560;DHT22;2803;47.916;8.074;2022-11-15T04:57:27;11.40;99.90
5560;DHT22;2803;47.916;8.074;2022-11-15T04:59:54;11.40;99.90
5560;DHT22;2803;47.916;8.074;2022-11-15T05:02:20;11.00;99.90
5560;DHT22;2803;47.916;8.074;2022-11-15T05:04:47;10.80;99.90
5560;DHT22;2803;47.916;8.074;2022-11-15T05:07:13;10.80;99.90
5560;DHT22;2803;47.916;8.074;2022-11-15T05:09:40;10.90;99.90
5560;DHT22;2803;47.916;8.074;2022-11-15T05:12:07;10.80;99.90
5560;DHT22;2803;47.916;8.074;2022-11-15T05:14:34;10.50;99.90
5560;DHT22;2803;47.916;8.074;2022-11-15T05:17:00;10.90;99.90
5560;DHT22;2803;47.916;8.074;2022-11-15T05:19:27;11.20;99.90
5560;DHT22;2803;47.916;8.074;2022-11-15T05:21:53;11.40;99.90
5560;DHT22;2803;47.916;8.074;2022-11-15T05:24:20;11.30;99.90
5560;DHT22;2803;47.916;8.074;2022-11-15T05:26:48;11.30;99.90
5560;DHT22;2803;47.916;8.074;2022-11-15T05:29:14;11.10;99.90
5560;DHT22;2803;47.916;8.074;2022-11-15T05:31:41;10.80;99.90
5560;DHT22;2803;47.916;8.074;2022-11-15T05:34:08;10.30;99.90
5560;DHT22;2803;47.916;8.074;2022-11-15T05:36:37;10.20;99.90
5560;DHT22;2803;47.916;8.074;2022-11-15T05:39:05;10.20;99.90
5560;DHT22;2803;47.916;8.074;2022-11-15T05:41:34;10.00;99.90
5560;DHT22;2803;47.916;8.074;2022-11-15T05:44:03;10.10;99.90
5560;DHT22;2803;47.916;8.074;2022-11-15T05:46:33;10.20;99.90
5560;DHT22;2803;47.916;8.074;2022-11-15T05:49:00;10.30;99.90
5560;DHT22;2803;47.916;8.074;2022-11-15T05:51:29;10.30;99.90
5560;DHT22;2803;47.916;8.074;2022-11-15T05:53:57;10.70;99.90
5560;DHT22;2803;47.916;8.074;2022-11-15T05:56:24;10.90;99.90
5560;DHT22;2803;47.916;8.074;2022-11-15T05:58:52;10.60;99.90
5560;DHT22;2803;47.916;8.074;2022-11-15T06:01:21;10.80;99.90
5560;DHT22;2803;47.916;8.074;2022-11-15T06:03:49;11.20;99.90
5560;DHT22;2803;47.916;8.074;2022-11-15T06:06:15;11.10;99.90
5560;DHT22;2803;47.916;8.074;2022-11-15T06:08:42;11.60;99.90
5560;DHT22;2803;47.916;8.074;2022-11-15T06:11:09;12.00;99.90
5560;DHT22;2803;47.916;8.074;2022-11-15T06:13:35;11.90;99.90
5560;DHT22;2803;47.916;8.074;2022-11-15T06:16:02;11.90;99.90
5560;DHT22;2803;47.916;8.074;2022-11-15T06:18:32;12.10;99.90
5560;DHT22;2803;47.916;8.074;2022-11-15T06:20:59;12.30;99.90
5560;DHT22;2803;47.916;8.074;2022-11-15T06:23:27;12.40;99.90
5560;DHT22;2803;47.916;8.074;2022-11-15T06:25:53;12.50;99.90
5560;DHT22;2803;47.916;8.074;2022-11-15T06:28:23;12.40;99.90
5560;DHT22;2803;47.916;8.074;2022-11-15T06:30:50;12.40;99.90
5560;DHT22;2803;47.916;8.074;2022-11-15T06:33:16;12.30;99.90
5560;DHT22;2803;47.916;8.074;2022-11-15T06:35:44;12.30;99.90
5560;DHT22;2803;47.916;8.074;2022-11-15T06:38:11;12.30;99.90
5560;DHT22;2803;47.916;8.074;2022-11-15T06:40:38;12.30;99.90
5560;DHT22;2803;47.916;8.074;2022-11-15T06:43:06;12.40;99.90
5560;DHT22;2803;47.916;8.074;2022-11-15T06:45:33;12.50;99.90
5560;DHT22;2803;47.916;8.074;2022-11-15T06:47:59;12.50;99.90
5560;DHT22;2803;47.916;8.074;2022-11-15T06:50:26;12.30;99.90
5560;DHT22;2803;47.916;8.074;2022-11-15T06:52:54;12.60;99.90
5560;DHT22;2803;47.916;8.074;2022-11-15T06:55:21;12.30;99.90
5560;DHT22;2803;47.916;8.074;2022-11-15T06:57:48;12.60;99.90
5560;DHT22;2803;47.916;8.074;2022-11-15T07:00:15;12.00;99.90
5560;DHT22;2803;47.916;8.074;2022-11-15T07:02:42;11.90;99.90
5560;DHT22;2803;47.916;8.074;2022-11-15T07:05:09;11.90;99.90
5560;DHT22;2803;47.916;8.074;2022-11-15T07:07:36;12.00;99.90
5560;DHT22;2803;47.916;8.074;2022-11-15T07:10:04;11.90;99.90
5560;DHT22;2803;47.916;8.074;2022-11-15T07:12:31;11.80;99.90
5560;DHT22;2803;47.916;8.074;2022-11-15T07:14:58;12.10;99.90
5560;DHT22;2803;47.916;8.074;2022-11-15T07:17:24;11.90;99.90
5560;DHT22;2803;47.916;8.074;2022-11-15T07:19:51;12.10;99.90
5560;DHT22;2803;47.916;8.074;2022-11-15T07:22:18;11.90;99.90
5560;DHT22;2803;47.916;8.074;2022-11-15T07:24:44;12.00;99.90
5560;DHT22;2803;47.916;8.074;2022-11-15T07:27:12;12.30;99.90
5560;DHT22;2803;47.916;8.074;2022-11-15T07:29:39;12.40;99.90
5560;DHT22;2803;47.916;8.074;2022-11-15T07:32:06;12.10;99.90
5560;DHT22;2803;47.916;8.074;2022-11-15T07:34:32;11.80;99.90
5560;DHT22;2803;47.916;8.074;2022-11-15T07:36:59;12.10;99.90
5560;DHT22;2803;47.916;8.074;2022-11-15T07:39:26;12.40;99.90
5560;DHT22;2803;47.916;8.074;2022-11-15T07:41:52;12.60;99.90
5560;DHT22;2803;47.916;8.074;2022-11-15T07:44:41;12.90;99.90
5560;DHT22;2803;47.916;8.074;2022-11-15T07:47:07;13.10;99.90
5560;DHT22;2803;47.916;8.074;2022-11-15T07:49:34;13.20;99.90
5560;DHT22;2803;47.916;8.074;2022-11-15T07:52:00;13.30;99.90
5560;DHT22;2803;47.916;8.074;2022-11-15T07:54:27;13.20;99.90
5560;DHT22;2803;47.916;8.074;2022-11-15T07:56:54;12.60;99.90
5560;DHT22;2803;47.916;8.074;2022-11-15T07:59:20;12.50;99.90
5560;DHT22;2803;47.916;8.074;2022-11-15T08:01:48;12.80;99.90
5560;DHT22;2803;47.916;8.074;2022-11-15T08:04:15;12.80;99.90
5560;DHT22;2803;47.916;8.074;2022-11-15T08:06:41;12.80;99.90
5560;DHT22;2803;47.916;8.074;2022-11-15T08:09:09;12.80;99.90
5560;DHT22;2803;47.916;8.074;2022-11-15T08:11:35;12.90;99.90
5560;DHT22;2803;47.916;8.074;2022-11-15T08:14:02;13.00;99.90
5560;DHT22;2803;47.916;8.074;2022-11-15T08:16:29;13.00;99.90
5560;DHT22;2803;47.916;8.074;2022-11-15T08:18:57;13.30;99.90
5560;DHT22;2803;47.916;8.074;2022-11-15T08:21:34;13.30;99.90
5560;DHT22;2803;47.916;8.074;2022-11-15T08:24:00;13.50;99.90
5560;DHT22;2803;47.916;8.074;2022-11-15T08:26:27;13.70;99.90
5560;DHT22;2803;47.916;8.074;2022-11-15T08:28:55;13.70;99.90
5560;DHT22;2803;47.916;8.074;2022-11-15T08:31:22;13.90;99.90
5560;DHT22;2803;47.916;8.074;2022-11-15T08:33:48;13.80;99.90
5560;DHT22;2803;47.916;8.074;2022-11-15T08:36:17;13.70;99.90
5560;DHT22;2803;47.916;8.074;2022-11-15T08:38:43;13.60;99.90
5560;DHT22;2803;47.916;8.074;2022-11-15T08:41:13;13.80;99.90
5560;DHT22;2803;47.916;8.074;2022-11-15T08:43:40;14.00;99.90
5560;DHT22;2803;47.916;8.074;2022-11-15T08:46:09;14.10;99.90
5560;DHT22;2803;47.916;8.074;2022-11-15T08:48:37;14.00;99.90
5560;DHT22;2803;47.916;8.074;2022-11-15T08:51:04;14.10;99.90
5560;DHT22;2803;47.916;8.074;2022-11-15T08:53:33;14.30;99.90
5560;DHT22;2803;47.916;8.074;2022-11-15T08:55:59;14.40;99.90
5560;DHT22;2803;47.916;8.074;2022-11-15T08:58:27;14.20;99.90
5560;DHT22;2803;47.916;8.074;2022-11-15T09:00:53;14.10;99.90
5560;DHT22;2803;47.916;8.074;2022-11-15T09:03:20;14.40;99.90
5560;DHT22;2803;47.916;8.074;2022-11-15T09:05:47;14.30;99.90
5560;DHT22;2803;47.916;8.074;2022-11-15T09:08:14;14.20;99.90
5560;DHT22;2803;47.916;8.074;2022-11-15T09:10:42;14.10;99.90
5560;DHT22;2803;47.916;8.074;2022-11-15T09:13:09;14.10;99.90
5560;DHT22;2803;47.916;8.074;2022-11-15T09:15:35;14.10;99.90
5560;DHT22;2803;47.916;8.074;2022-11-15T09:18:02;13.90;99.90
5560;DHT22;2803;47.916;8.074;2022-11-15T09:20:29;13.90;99.90
5560;DHT22;2803;47.916;8.074;2022-11-15T09:22:59;14.30;99.90
5560;DHT22;2803;47.916;8.074;2022-11-15T09:25:26;14.50;99.90
5560;DHT22;2803;47.916;8.074;2022-11-15T09:27:54;14.30;99.90
5560;DHT22;2803;47.916;8.074;2022-11-15T09:30:21;14.60;99.90
5560;DHT22;2803;47.916;8.074;2022-11-15T09:32:47;14.50;99.90
5560;DHT22;2803;47.916;8.074;2022-11-15T09:35:14;14.30;99.90
5560;DHT22;2803;47.916;8.074;2022-11-15T09:37:41;14.50;99.90
5560;DHT22;2803;47.916;8.074;2022-11-15T09:40:10;14.50;99.90
5560;DHT22;2803;47.916;8.074;2022-11-15T09:42:48;14.50;99.90
5560;DHT22;2803;47.916;8.074;2022-11-15T09:45:23;14.70;99.90
5560;DHT22;2803;47.916;8.074;2022-11-15T09:48:04;14.90;99.90
5560;DHT22;2803;47.916;8.074;2022-11-15T09:50:38;15.20;99.90
5560;DHT22;2803;47.916;8.074;2022-11-15T09:53:12;15.00;99.90
5560;DHT22;2803;47.916;8.074;2022-11-15T09:55:45;15.00;99.90
5560;DHT22;2803;47.916;8.074;2022-11-15T09:58:21;15.10;99.90
5560;DHT22;2803;47.916;8.074;2022-11-15T10:00:52;15.20;99.90
5560;DHT22;2803;47.916;8.074;2022-11-15T10:03:25;15.20;99.90
5560;DHT22;2803;47.916;8.074;2022-11-15T10:05:54;14.80;99.90
5560;DHT22;2803;47.916;8.074;2022-11-15T10:08:31;15.00;99.90
5560;DHT22;2803;47.916;8.074;2022-11-15T10:11:02;15.20;99.90
5560;DHT22;2803;47.916;8.074;2022-11-15T10:13:32;15.50;99.90
5560;DHT22;2803;47.916;8.074;2022-11-15T10:16:07;15.40;99.90
5560;DHT22;2803;47.916;8.074;2022-11-15T10:18:49;15.10;99.90
5560;DHT22;2803;47.916;8.074;2022-11-15T10:21:21;14.60;99.90
5560;DHT22;2803;47.916;8.074;2022-11-15T10:23:48;14.70;99.90
5560;DHT22;2803;47.916;8.074;2022-11-15T10:26:17;14.70;99.90
5560;DHT22;2803;47.916;8.074;2022-11-15T10:28:43;14.90;99.90
5560;DHT22;2803;47.916;8.074;2022-11-15T10:31:24;14.90;99.90
5560;DHT22;2803;47.916;8.074;2022-11-15T10:33:51;14.90;99.90
5560;DHT22;2803;47.916;8.074;2022-11-15T10:36:20;14.80;99.90
5560;DHT22;2803;47.916;8.074;2022-11-15T10:38:55;15.10;99.90
5560;DHT22;2803;47.916;8.074;2022-11-15T10:41:28;14.80;99.90
5560;DHT22;2803;47.916;8.074;2022-11-15T10:44:11;15.00;99.90
5560;DHT22;2803;47.916;8.074;2022-11-15T10:46:40;15.20;99.90
5560;DHT22;2803;47.916;8.074;2022-11-15T10:49:13;15.40;99.90
5560;DHT22;2803;47.916;8.074;2022-11-15T10:51:43;15.50;99.90
5560;DHT22;2803;47.916;8.074;2022-11-15T10:54:12;15.60;99.90
5560;DHT22;2803;47.916;8.074;2022-11-15T10:56:40;15.70;99.90
5560;DHT22;2803;47.916;8.074;2022-11-15T10:59:15;15.70;99.90
5560;DHT22;2803;47.916;8.074;2022-11-15T11:01:47;15.70;99.90
5560;DHT22;2803;47.916;8.074;2022-11-15T11:04:14;15.60;99.90
5560;DHT22;2803;47.916;8.074;2022-11-15T11:06:49;15.40;99.90
5560;DHT22;2803;47.916;8.074;2022-11-15T11:09:29;15.60;99.90
5560;DHT22;2803;47.916;8.074;2022-11-15T11:11:57;15.80;99.90
5560;DHT22;2803;47.916;8.074;2022-11-15T11:14:25;16.00;99.90
5560;DHT22;2803;47.916;8.074;2022-11-15T11:16:57;15.90;99.90
5560;DHT22;2803;47.916;8.074;2022-11-15T11:19:44;16.10;99.90
5560;DHT22;2803;47.916;8.074;2022-11-15T11:22:19;16.30;99.90
5560;DHT22;2803;47.916;8.074;2022-11-15T11:24:53;15.40;99.90
5560;DHT22;2803;47.916;8.074;2022-11-15T11:27:34;15.30;99.90
5560;DHT22;2803;47.916;8.074;2022-11-15T11:30:08;15.80;99.90
5560;DHT22;2803;47.916;8.074;2022-11-15T11:32:49;16.00;99.90
5560;DHT22;2803;47.916;8.074;2022-11-15T11:35:22;16.20;99.90
5560;DHT22;2803;47.916;8.074;2022-11-15T11:37:52;16.40;99.90
5560;DHT22;2803;47.916;8.074;2022-11-15T11:40:28;16.30;99.90
5560;DHT22;2803;47.916;8.074;2022-11-15T11:43:00;16.10;99.90
5560;DHT22;2803;47.916;8.074;2022-11-15T11:45:51;16.00;99.90
5560;DHT22;2803;47.916;8.074;2022-11-15T11:48:29;15.90;99.90
5560;DHT22;2803;47.916;8.074;2022-11-15T11:51:04;16.20;99.90
5560;DHT22;2803;47.916;8.074;2022-11-15T11:53:37;16.50;99.90
5560;DHT22;2803;47.916;8.074;2022-11-15T11:56:14;15.90;99.90
5560;DHT22;2803;47.916;8.074;2022-11-15T11:58:44;16.30;99.90
5560;DHT22;2803;47.916;8.074;2022-11-15T12:01:16;16.50;99.90
5560;DHT22;2803;47.916;8.074;2022-11-15T12:03:47;16.30;99.90
5560;DHT22;2803;47.916;8.074;2022-11-15T12:06:22;16.40;99.90
5560;DHT22;2803;47.916;8.074;2022-11-15T12:08:53;16.40;99.90
5560;DHT22;2803;47.916;8.074;2022-11-15T12:11:29;16.40;99.90
5560;DHT22;2803;47.916;8.074;2022-11-15T12:14:20;16.60;99.90
5560;DHT22;2803;47.916;8.074;2022-11-15T12:16:49;16.40;99.90
5560;DHT22;2803;47.916;8.074;2022-11-15T12:19:17;16.40;99.90
5560;DHT22;2803;47.916;8.074;2022-11-15T12:21:47;16.30;99.90
5560;DHT22;2803;47.916;8.074;2022-11-15T12:24:18;16.50;99.90
5560;DHT22;2803;47.916;8.074;2022-11-15T12:26:49;16.60;99.90
5560;DHT22;2803;47.916;8.074;2022-11-15T12:29:23;16.70;99.90
5560;DHT22;2803;47.916;8.074;2022-11-15T12:31:53;16.60;99.90
5560;DHT22;2803;47.916;8.074;2022-11-15T12:34:40;16.50;99.90
5560;DHT22;2803;47.916;8.074;2022-11-15T12:40:19;16.30;99.90
5560;DHT22;2803;47.916;8.074;2022-11-15T12:42:59;16.40;99.90
5560;DHT22;2803;47.916;8.074;2022-11-15T12:45:29;16.10;99.90
5560;DHT22;2803;47.916;8.074;2022-11-15T12:50:55;16.00;99.90
5560;DHT22;2803;47.916;8.074;2022-11-15T12:53:27;15.90;99.90
5560;DHT22;2803;47.916;8.074;2022-11-15T12:58:53;16.20;99.90
5560;DHT22;2803;47.916;8.074;2022-11-15T13:04:23;16.60;99.90
5560;DHT22;2803;47.916;8.074;2022-11-15T13:06:53;16.80;99.90
5560;DHT22;2803;47.916;8.074;2022-11-15T13:15:37;16.80;99.90
5560;DHT22;2803;47.916;8.074;2022-11-15T13:21:02;16.30;99.90
5560;DHT22;2803;47.916;8.074;2022-11-15T13:23:53;15.70;99.90
5560;DHT22;2803;47.916;8.074;2022-11-15T13:26:21;15.50;99.90
5560;DHT22;2803;47.916;8.074;2022-11-15T13:28:49;15.50;99.90
5560;DHT22;2803;47.916;8.074;2022-11-15T13:31:24;15.80;99.90
5560;DHT22;2803;47.916;8.074;2022-11-15T13:33:51;15.60;99.90
5560;DHT22;2803;47.916;8.074;2022-11-15T13:36:20;15.90;99.90
5560;DHT22;2803;47.916;8.074;2022-11-15T13:38:57;15.80;99.90
5560;DHT22;2803;47.916;8.074;2022-11-15T13:41:25;15.90;99.90
5560;DHT22;2803;47.916;8.074;2022-11-15T13:43:53;15.80;99.90
5560;DHT22;2803;47.916;8.074;2022-11-15T13:46:21;15.90;99.90
5560;DHT22;2803;47.916;8.074;2022-11-15T13:48:52;15.90;99.90
5560;DHT22;2803;47.916;8.074;2022-11-15T13:51:23;15.90;99.90
5560;DHT22;2803;47.916;8.074;2022-11-15T13:53:56;16.00;99.90
5560;DHT22;2803;47.916;8.074;2022-11-15T13:56:25;16.20;99.90
5560;DHT22;2803;47.916;8.074;2022-11-15T13:58:53;16.10;99.90
5560;DHT22;2803;47.916;8.074;2022-11-15T14:01:21;16.10;99.90
5560;DHT22;2803;47.916;8.074;2022-11-15T14:03:52;16.20;99.90
5560;DHT22;2803;47.916;8.074;2022-11-15T14:06:20;15.80;99.90
5560;DHT22;2803;47.916;8.074;2022-11-15T14:11:51;15.60;99.90
5560;DHT22;2803;47.916;8.074;2022-11-15T14:14:20;15.50;99.90
5560;DHT22;2803;47.916;8.074;2022-11-15T14:16:49;15.60;99.90
5560;DHT22;2803;47.916;8.074;2022-11-15T14:19:34;15.40;99.90
5560;DHT22;2803;47.916;8.074;2022-11-15T14:22:11;15.70;99.90
5560;DHT22;2803;47.916;8.074;2022-11-15T14:24:41;15.60;99.90
5560;DHT22;2803;47.916;8.074;2022-11-15T14:27:24;15.30;99.90
5560;DHT22;2803;47.916;8.074;2022-11-15T14:29:51;15.20;99.90
5560;DHT22;2803;47.916;8.074;2022-11-15T14:32:21;15.10;99.90
5560;DHT22;2803;47.916;8.074;2022-11-15T14:34:49;15.30;99.90
5560;DHT22;2803;47.916;8.074;2022-11-15T14:37:21;15.40;99.90
5560;DHT22;2803;47.916;8.074;2022-11-15T14:39:50;15.50;99.90
5560;DHT22;2803;47.916;8.074;2022-11-15T14:42:17;15.50;99.90
5560;DHT22;2803;47.916;8.074;2022-11-15T14:44:45;15.30;99.90
5560;DHT22;2803;47.916;8.074;2022-11-15T14:47:12;15.30;99.90
5560;DHT22;2803;47.916;8.074;2022-11-15T14:49:39;15.00;99.90
5560;DHT22;2803;47.916;8.074;2022-11-15T14:52:23;15.10;99.90
5560;DHT22;2803;47.916;8.074;2022-11-15T14:54:51;15.20;99.90
5560;DHT22;2803;47.916;8.074;2022-11-15T14:57:18;15.30;99.90
5560;DHT22;2803;47.916;8.074;2022-11-15T14:59:45;15.40;99.90
5560;DHT22;2803;47.916;8.074;2022-11-15T15:02:16;15.50;99.90
5560;DHT22;2803;47.916;8.074;2022-11-15T15:04:43;15.50;99.90
5560;DHT22;2803;47.916;8.074;2022-11-15T15:07:09;15.30;99.90
5560;DHT22;2803;47.916;8.074;2022-11-15T15:09:36;15.40;99.90
5560;DHT22;2803;47.916;8.074;2022-11-15T15:12:04;15.40;99.90
5560;DHT22;2803;47.916;8.074;2022-11-15T15:14:32;15.30;99.90
5560;DHT22;2803;47.916;8.074;2022-11-15T15:16:58;15.20;99.90
5560;DHT22;2803;47.916;8.074;2022-11-15T15:19:25;15.10;99.90
5560;DHT22;2803;47.916;8.074;2022-11-15T15:21:52;15.30;99.90
5560;DHT22;2803;47.916;8.074;2022-11-15T15:24:18;15.20;99.90
5560;DHT22;2803;47.916;8.074;2022-11-15T15:26:45;15.30;99.90
5560;DHT22;2803;47.916;8.074;2022-11-15T15:29:13;15.30;99.90
5560;DHT22;2803;47.916;8.074;2022-11-15T15:31:39;15.20;99.90
5560;DHT22;2803;47.916;8.074;2022-11-15T15:34:06;15.10;99.90
5560;DHT22;2803;47.916;8.074;2022-11-15T15:36:32;15.30;99.90
5560;DHT22;2803;47.916;8.074;2022-11-15T15:38:59;15.40;99.90
5560;DHT22;2803;47.916;8.074;2022-11-15T15:41:26;15.50;99.90
5560;DHT22;2803;47.916;8.074;2022-11-15T15:43:52;15.50;99.90
5560;DHT22;2803;47.916;8.074;2022-11-15T15:46:24;15.60;99.90
5560;DHT22;2803;47.916;8.074;2022-11-15T15:48:51;15.40;99.90
5560;DHT22;2803;47.916;8.074;2022-11-15T15:51:17;14.90;99.90
5560;DHT22;2803;47.916;8.074;2022-11-15T15:53:44;14.60;99.90
5560;DHT22;2803;47.916;8.074;2022-11-15T15:56:10;14.80;99.90
5560;DHT22;2803;47.916;8.074;2022-11-15T15:58:37;14.80;99.90
5560;DHT22;2803;47.916;8.074;2022-11-15T16:01:04;14.90;99.90
5560;DHT22;2803;47.916;8.074;2022-11-15T16:03:31;15.00;99.90
5560;DHT22;2803;47.916;8.074;2022-11-15T16:05:58;15.00;99.90
5560;DHT22;2803;47.916;8.074;2022-11-15T16:08:25;15.10;99.90
5560;DHT22;2803;47.916;8.074;2022-11-15T16:10:54;15.10;99.90
5560;DHT22;2803;47.916;8.074;2022-11-15T16:13:21;15.10;99.90
5560;DHT22;2803;47.916;8.074;2022-11-15T16:15:51;15.00;99.90
5560;DHT22;2803;47.916;8.074;2022-11-15T16:18:18;14.90;99.90
5560;DHT22;2803;47.916;8.074;2022-11-15T16:24:08;14.60;99.90
5560;DHT22;2803;47.916;8.074;2022-11-15T16:26:37;13.60;99.90
5560;DHT22;2803;47.916;8.074;2022-11-15T16:29:04;13.60;99.90
5560;DHT22;2803;47.916;8.074;2022-11-15T16:31:32;13.50;99.90
5560;DHT22;2803;47.916;8.074;2022-11-15T16:33:59;13.70;99.90
5560;DHT22;2803;47.916;8.074;2022-11-15T16:36:26;13.70;99.90
5560;DHT22;2803;47.916;8.074;2022-11-15T16:38:54;13.80;99.90
5560;DHT22;2803;47.916;8.074;2022-11-15T16:41:22;13.80;99.90
5560;DHT22;2803;47.916;8.074;2022-11-15T16:43:49;14.00;99.90
5560;DHT22;2803;47.916;8.074;2022-11-15T16:46:17;14.30;99.90